Time;durP1;ratioP1;P1;durP2;ratioP2;P2;SDS_P1;SDS_P2;PMS_P1;PMS_P2;Temp;Humidity;BMP_temperature;BMP_pressure;BME280_temperature;BME280_humidity;BME280_pressure;Samples;Min_cycle;Max_cycle;Signal;HPM_P1;HPM_P2
2022/01/12 00:01:42;;;;;;;18.48;11.75;;;21.90;47.40;;;;;;4970174;28;20450;-75
2022/01/12 00:04:10;;;;;;;22.33;12.45;;;21.90;47.50;;;;;;4959276;28;20520;-75
2022/01/12 00:06:35;;;;;;;16.77;11.57;;;21.90;47.60;;;;;;4955342;28;20035;-75
2022/01/12 00:09:06;;;;;;;16.60;10.77;;;21.90;47.60;;;;;;4955389;28;20078;-74
2022/01/12 00:11:33;;;;;;;18.70;11.40;;;21.90;47.80;;;;;;4954108;28;20086;-75
2022/01/12 00:13:59;;;;;;;17.35;11.40;;;21.90;47.80;;;;;;4955486;28;20031;-74
2022/01/12 00:16:25;;;;;;;18.25;11.00;;;21.90;47.90;;;;;;4955531;28;20035;-75
2022/01/12 00:18:51;;;;;;;18.58;10.95;;;21.90;47.90;;;;;;4956667;28;20035;-90
2022/01/12 00:21:16;;;;;;;24.73;19.75;;;21.80;47.80;;;;;;4935070;28;20081;-74
2022/01/12 00:23:42;;;;;;;18.00;12.13;;;21.50;45.90;;;;;;4955547;28;20111;-75
2022/01/12 00:26:24;;;;;;;20.23;13.27;;;21.50;46.60;;;;;;4954881;28;20023;-75
2022/01/12 00:34:26;;;;;;;21.55;13.98;;;21.60;44.00;;;;;;4958464;28;20058;-76
2022/01/12 00:36:52;;;;;;;17.77;12.55;;;21.70;44.30;;;;;;4954059;28;20086;-75
2022/01/12 00:39:18;;;;;;;18.35;13.10;;;21.70;44.60;;;;;;4964971;28;20027;-75
2022/01/12 00:41:44;;;;;;;20.27;12.15;;;21.70;44.80;;;;;;4968292;28;20027;-75
2022/01/12 00:44:21;;;;;;;19.25;12.48;;;21.70;45.00;;;;;;4967839;28;20538;-76
2022/01/12 00:46:46;;;;;;;16.35;11.18;;;21.70;45.20;;;;;;4974289;28;20578;-75
2022/01/12 00:49:12;;;;;;;19.10;12.95;;;21.80;45.40;;;;;;4951041;28;20118;-75
2022/01/12 00:51:39;;;;;;;21.40;12.02;;;21.80;45.50;;;;;;4953321;28;20034;-74
2022/01/12 00:54:08;;;;;;;19.63;11.88;;;21.80;45.70;;;;;;4958592;28;20035;-74
2022/01/12 00:56:34;;;;;;;17.98;11.63;;;21.80;45.80;;;;;;4954633;28;20669;-75
2022/01/12 00:59:00;;;;;;;17.85;11.60;;;21.80;45.90;;;;;;4975429;28;20519;-75
2022/01/12 01:01:27;;;;;;;19.08;11.77;;;21.80;46.00;;;;;;4968355;28;20031;-75
2022/01/12 01:03:54;;;;;;;19.85;12.00;;;21.80;46.10;;;;;;4954861;29;20058;-74
2022/01/12 01:06:22;;;;;;;17.20;11.40;;;21.80;46.20;;;;;;4957428;28;20113;-75
2022/01/12 01:08:51;;;;;;;16.42;11.52;;;21.90;46.30;;;;;;4957346;28;20109;-75
2022/01/12 01:11:19;;;;;;;16.58;11.00;;;21.90;46.50;;;;;;4974040;28;20022;-75
2022/01/12 01:14:12;;;;;;;16.98;11.32;;;21.90;46.50;;;;;;4945146;29;20049;-75
2022/01/12 01:27:27;;;;;;;16.63;10.95;;;21.90;47.00;;;;;;4954926;29;20377;-75
2022/01/12 01:29:54;;;;;;;19.63;11.07;;;21.90;47.10;;;;;;4948597;28;20078;-76
2022/01/12 01:32:20;;;;;;;17.60;10.70;;;21.90;47.10;;;;;;4954501;29;20027;-75
2022/01/12 01:34:48;;;;;;;17.50;10.73;;;21.90;48.00;;;;;;4955915;29;20039;-76
2022/01/12 01:37:17;;;;;;;19.65;10.10;;;21.90;47.40;;;;;;4975970;28;20082;-75
2022/01/12 01:39:45;;;;;;;21.98;11.18;;;21.90;47.60;;;;;;4970737;28;20082;-75
2022/01/12 01:42:23;;;;;;;15.32;10.43;;;21.90;47.60;;;;;;4972846;28;20023;-75
2022/01/12 01:55:40;;;;;;;19.00;10.98;;;21.90;47.90;;;;;;4973111;28;20042;-75
2022/01/12 01:58:06;;;;;;;16.67;10.32;;;21.90;48.00;;;;;;4971548;28;20038;-76
2022/01/12 02:00:35;;;;;;;24.35;10.32;;;21.90;47.90;;;;;;4972837;28;20058;-75
2022/01/12 02:03:06;;;;;;;17.02;10.20;;;21.90;47.90;;;;;;4974295;28;20117;-75
2022/01/12 02:05:42;;;;;;;19.75;10.35;;;21.90;48.10;;;;;;4973167;28;20367;-75
2022/01/12 02:08:09;;;;;;;16.20;10.13;;;21.90;48.10;;;;;;4972985;28;20114;-75
2022/01/12 02:10:42;;;;;;;16.58;9.75;;;21.90;48.10;;;;;;4972761;28;20030;-75
2022/01/12 02:13:09;;;;;;;16.10;9.60;;;21.90;48.00;;;;;;4972535;28;20463;-75
2022/01/12 02:15:37;;;;;;;16.27;9.90;;;21.90;48.10;;;;;;4972996;28;20679;-76
2022/01/12 02:19:12;;;;;;;17.08;10.05;;;21.90;48.10;;;;;;4972608;28;20045;-75
2022/01/12 02:40:21;;;;;;;15.52;9.38;;;21.90;48.30;;;;;;4942605;28;20105;-75
2022/01/12 02:42:57;;;;;;;15.55;9.68;;;21.90;48.40;;;;;;4956502;28;20491;-75
2022/01/12 02:51:07;;;;;;;15.50;9.65;;;21.90;48.60;;;;;;4971911;28;20031;-74
2022/01/12 02:53:39;;;;;;;17.10;9.82;;;21.90;48.60;;;;;;4972523;28;20034;-75
2022/01/12 02:56:16;;;;;;;14.82;9.02;;;21.90;48.70;;;;;;4971891;28;20499;-75
2022/01/12 02:58:45;;;;;;;15.15;9.35;;;21.90;48.80;;;;;;4970793;28;20029;-75
2022/01/12 03:04:00;;;;;;;14.75;9.27;;;21.90;48.90;;;;;;4956205;28;20062;-75
2022/01/12 03:06:33;;;;;;;16.23;9.43;;;21.90;49.00;;;;;;4971846;28;20062;-75
2022/01/12 03:09:00;;;;;;;15.93;9.35;;;21.90;49.00;;;;;;4972828;28;20106;-75
2022/01/12 03:11:27;;;;;;;13.75;9.20;;;21.90;49.00;;;;;;4956198;28;20701;-75
2022/01/12 03:13:56;;;;;;;13.77;9.00;;;21.90;49.20;;;;;;4970374;28;20143;-75
2022/01/12 03:16:25;;;;;;;14.05;9.25;;;21.90;49.20;;;;;;4972034;28;20030;-75
2022/01/12 03:19:00;;;;;;;14.55;8.75;;;21.90;49.30;;;;;;4971391;28;20034;-75
2022/01/12 03:21:32;;;;;;;13.95;8.75;;;21.90;49.40;;;;;;4971993;28;20030;-75
2022/01/12 03:23:59;;;;;;;15.45;9.15;;;22.00;49.40;;;;;;4971698;28;20034;-75
2022/01/12 03:26:28;;;;;;;16.08;9.25;;;21.90;49.30;;;;;;4971950;28;20058;-75
2022/01/12 03:28:55;;;;;;;12.57;8.38;;;21.90;49.30;;;;;;4959801;28;20038;-75
2022/01/12 03:31:34;;;;;;;14.23;9.10;;;21.90;49.40;;;;;;4936330;29;20538;-75
2022/01/12 03:39:22;;;;;;;14.30;8.73;;;22.00;49.50;;;;;;4951885;29;20061;-75
2022/01/12 03:42:07;;;;;;;14.32;9.05;;;21.90;49.50;;;;;;4956738;28;20101;-75
2022/01/12 03:44:51;;;;;;;14.55;8.77;;;22.00;49.60;;;;;;4972818;28;20049;-75
2022/01/12 03:47:35;;;;;;;13.88;8.57;;;21.90;49.60;;;;;;4971997;28;20161;-75
2022/01/12 03:50:20;;;;;;;13.55;8.82;;;22.00;49.70;;;;;;4971489;28;20070;-75
2022/01/12 03:53:04;;;;;;;15.98;8.50;;;22.00;49.70;;;;;;4972966;28;20445;-75
2022/01/12 03:55:49;;;;;;;15.50;8.82;;;22.00;50.30;;;;;;4972867;28;20081;-75
2022/01/12 03:58:33;;;;;;;13.10;8.20;;;22.00;49.80;;;;;;4952646;29;20090;-75
2022/01/12 04:01:18;;;;;;;12.95;8.20;;;22.00;49.80;;;;;;4953418;29;20116;-75
2022/01/12 04:04:07;;;;;;;15.75;8.15;;;22.00;49.80;;;;;;4952498;29;20503;-75
2022/01/12 04:09:38;;;;;;;12.90;8.02;;;22.00;49.90;;;;;;4951567;29;20035;-75
2022/01/12 04:12:04;;;;;;;15.10;9.45;;;22.00;49.90;;;;;;4952342;28;20027;-75
2022/01/12 04:14:31;;;;;;;13.15;8.45;;;22.00;50.00;;;;;;4951945;29;20423;-75
2022/01/12 04:16:57;;;;;;;14.48;8.73;;;22.00;50.00;;;;;;4951858;29;20057;-75
2022/01/12 04:19:27;;;;;;;15.70;8.63;;;22.00;50.00;;;;;;4953867;28;20069;-75
2022/01/12 04:21:53;;;;;;;12.95;8.40;;;22.00;50.10;;;;;;4959625;28;20031;-75
2022/01/12 04:24:19;;;;;;;13.85;8.25;;;22.00;50.10;;;;;;4952015;28;20606;-75
2022/01/12 04:26:45;;;;;;;12.70;7.80;;;22.00;50.70;;;;;;4935824;29;20031;-75
2022/01/12 04:29:12;;;;;;;15.63;8.90;;;22.00;50.50;;;;;;4952579;28;20038;-75
2022/01/12 04:31:39;;;;;;;14.35;9.00;;;22.00;50.40;;;;;;4951878;29;20030;-74
2022/01/12 04:34:06;;;;;;;12.73;8.68;;;22.00;50.50;;;;;;4952593;28;20030;-74
2022/01/12 04:36:33;;;;;;;12.40;8.23;;;22.00;50.50;;;;;;4951532;29;20054;-74
2022/01/12 04:38:59;;;;;;;14.32;8.93;;;22.00;50.50;;;;;;4955284;28;20125;-74
2022/01/12 04:41:25;;;;;;;13.63;7.85;;;22.00;50.50;;;;;;4972993;28;20066;-75
2022/01/12 04:43:52;;;;;;;11.57;7.53;;;22.00;50.50;;;;;;4974307;28;20031;-75
2022/01/12 04:46:39;;;;;;;12.93;8.25;;;22.00;50.40;;;;;;4974262;28;20034;-76
2022/01/12 04:49:36;;;;;;;12.75;8.30;;;22.00;50.40;;;;;;4974982;28;20026;-75
2022/01/12 04:52:02;;;;;;;13.48;8.52;;;22.00;50.50;;;;;;4973228;28;20061;-75
2022/01/12 04:54:28;;;;;;;15.45;8.40;;;22.00;50.50;;;;;;4962133;28;20022;-75
2022/01/12 04:56:54;;;;;;;13.85;8.55;;;22.00;50.40;;;;;;4953671;29;20543;-76
2022/01/12 04:59:20;;;;;;;13.30;8.40;;;22.00;50.50;;;;;;4938673;29;20085;-77
2022/01/12 05:01:56;;;;;;;12.75;8.10;;;22.10;50.50;;;;;;4956442;28;20031;-75
2022/01/12 05:07:45;;;;;;;16.02;7.55;;;22.10;50.60;;;;;;4957022;28;20130;-75
2022/01/12 05:12:52;;;;;;;22.10;13.85;;;22.10;50.60;;;;;;4974053;28;20039;-75
2022/01/12 05:15:27;;;;;;;28.53;18.53;;;21.90;45.70;;;;;;4958277;28;20035;-75
2022/01/12 05:17:54;;;;;;;27.75;20.25;;;21.30;36.20;;;;;;4973577;28;20406;-75
2022/01/12 05:20:21;;;;;;;26.35;18.17;;;20.80;35.50;;;;;;4962029;28;20038;-75
2022/01/12 05:22:47;;;;;;;20.45;14.95;;;20.80;39.40;;;;;;4957949;28;20062;-74
2022/01/12 05:25:17;;;;;;;18.90;12.05;;;21.00;46.20;;;;;;4955046;28;20392;-75
2022/01/12 05:27:47;;;;;;;18.23;10.85;;;21.20;47.00;;;;;;4956883;28;20093;-74
2022/01/12 05:30:13;;;;;;;18.17;11.15;;;21.30;46.30;;;;;;4942911;28;20535;-75
2022/01/12 05:32:41;;;;;;;16.70;10.50;;;21.40;46.20;;;;;;4955566;28;20432;-75
2022/01/12 05:35:09;;;;;;;17.38;11.15;;;21.40;46.00;;;;;;4957057;28;20035;-74
2022/01/12 05:37:35;;;;;;;17.25;11.02;;;21.50;45.70;;;;;;4954456;28;20027;-74
2022/01/12 05:40:01;;;;;;;17.20;10.38;;;21.50;45.60;;;;;;4940870;28;20350;-74
2022/01/12 05:42:31;;;;;;;17.02;10.55;;;21.50;45.70;;;;;;4954228;29;20400;-74
2022/01/12 05:44:57;;;;;;;18.40;11.30;;;21.50;45.40;;;;;;4955174;28;20031;-74
2022/01/12 05:50:17;;;;;;;15.85;10.65;;;21.60;45.40;;;;;;4945434;28;20122;-74
2022/01/12 05:52:44;;;;;;;17.17;11.13;;;21.60;45.20;;;;;;4953288;28;20377;-74
2022/01/12 05:55:11;;;;;;;21.00;10.95;;;21.60;45.40;;;;;;4953627;29;20054;-75
2022/01/12 05:57:38;;;;;;;17.08;10.98;;;21.60;44.40;;;;;;4938027;29;20466;-74
2022/01/12 06:00:07;;;;;;;17.42;10.43;;;21.60;45.00;;;;;;4953321;29;20031;-76
2022/01/12 06:02:40;;;;;;;18.38;10.85;;;21.60;45.30;;;;;;4955031;28;20023;-79
2022/01/12 06:05:08;;;;;;;25.40;18.30;;;21.60;44.00;;;;;;4953853;28;20083;-75
2022/01/12 06:07:35;;;;;;;22.00;15.27;;;21.10;37.70;;;;;;4953719;29;20082;-76
2022/01/12 06:10:02;;;;;;;17.98;11.00;;;21.10;41.70;;;;;;4953141;29;20057;-75
2022/01/12 06:12:28;;;;;;;22.88;11.88;;;21.20;42.20;;;;;;4953841;29;20023;-76
2022/01/12 06:14:54;;;;;;;16.92;11.40;;;21.30;41.20;;;;;;4953566;29;20343;-76
2022/01/12 06:17:20;;;;;;;19.20;11.75;;;21.40;41.00;;;;;;4953568;29;20063;-75
2022/01/12 06:19:46;;;;;;;17.13;10.65;;;21.40;41.00;;;;;;4964582;28;20086;-76
2022/01/12 06:22:24;;;;;;;18.27;10.50;;;21.50;41.40;;;;;;4953389;29;20115;-75
2022/01/12 06:24:51;;;;;;;19.48;10.68;;;21.50;41.60;;;;;;4949154;28;20034;-75
2022/01/12 06:27:20;;;;;;;15.85;9.93;;;21.60;41.70;;;;;;4972820;28;20031;-76
2022/01/12 06:30:04;;;;;;;17.23;10.23;;;21.60;42.20;;;;;;4973429;28;20034;-75
2022/01/12 06:32:31;;;;;;;16.10;10.20;;;21.70;42.20;;;;;;4967552;28;20027;-75
2022/01/12 06:34:57;;;;;;;15.25;9.60;;;21.70;42.40;;;;;;4953063;29;20396;-75
2022/01/12 06:37:23;;;;;;;16.83;9.30;;;21.70;42.70;;;;;;4954220;28;20122;-75
2022/01/12 06:39:50;;;;;;;17.45;9.20;;;21.70;42.80;;;;;;4952807;29;20035;-76
2022/01/12 06:42:17;;;;;;;15.15;8.75;;;21.70;42.90;;;;;;4953648;29;20038;-76
2022/01/12 06:44:43;;;;;;;14.50;9.38;;;21.70;43.90;;;;;;4952879;29;20031;-76
2022/01/12 06:47:08;;;;;;;15.77;9.02;;;21.80;43.50;;;;;;4955327;28;20050;-76
2022/01/12 06:49:34;;;;;;;15.18;8.85;;;21.80;43.70;;;;;;4952927;29;20038;-76
2022/01/12 06:52:00;;;;;;;15.63;8.60;;;21.80;43.50;;;;;;4952843;29;20031;-75
2022/01/12 06:54:27;;;;;;;15.13;8.70;;;21.80;43.80;;;;;;4954114;28;20155;-76
2022/01/12 06:56:53;;;;;;;14.15;8.20;;;21.80;43.90;;;;;;4952492;29;20035;-76
2022/01/12 06:59:19;;;;;;;14.55;8.73;;;21.80;44.50;;;;;;4936629;29;20042;-76
2022/01/12 07:01:45;;;;;;;14.25;8.82;;;21.80;44.10;;;;;;4965046;28;20380;-75
2022/01/12 07:04:12;;;;;;;14.27;8.82;;;21.80;44.40;;;;;;4972357;28;20110;-75
2022/01/12 07:06:38;;;;;;;12.82;8.02;;;21.80;44.50;;;;;;4971795;28;20445;-76
2022/01/12 07:09:04;;;;;;;14.00;8.57;;;21.80;44.70;;;;;;4972054;28;20109;-76
2022/01/12 07:11:44;;;;;;;14.10;8.20;;;21.80;45.00;;;;;;4972223;28;20034;-75
2022/01/12 07:14:20;;;;;;;13.07;7.93;;;21.80;44.80;;;;;;4972090;28;20362;-76
2022/01/12 07:16:46;;;;;;;12.00;8.30;;;21.80;45.00;;;;;;4937029;29;20255;-76
2022/01/12 07:19:12;;;;;;;13.73;8.07;;;21.80;45.00;;;;;;4952071;29;20488;-76
2022/01/12 07:21:38;;;;;;;14.10;8.82;;;21.80;45.00;;;;;;4952318;29;20102;-76
2022/01/12 07:24:05;;;;;;;16.75;8.38;;;21.80;45.10;;;;;;4953566;29;20454;-76
2022/01/12 07:26:31;;;;;;;12.93;8.27;;;21.80;45.60;;;;;;4953695;28;20472;-76
2022/01/12 07:28:57;;;;;;;13.52;7.80;;;21.80;45.40;;;;;;4955572;28;20037;-77
2022/01/12 07:31:23;;;;;;;13.95;7.95;;;21.80;45.30;;;;;;4971682;28;20387;-77
2022/01/12 07:33:54;;;;;;;12.68;8.43;;;21.80;45.40;;;;;;4972815;28;20023;-77
2022/01/12 07:36:20;;;;;;;15.35;8.57;;;21.80;45.50;;;;;;4972798;28;20467;-77
2022/01/12 07:38:53;;;;;;;13.85;8.25;;;21.80;45.70;;;;;;4970995;28;20034;-77
2022/01/12 07:41:20;;;;;;;13.30;8.27;;;21.80;45.70;;;;;;4955588;28;20062;-77
2022/01/12 07:43:48;;;;;;;11.73;7.63;;;21.80;45.70;;;;;;4967692;28;20023;-76
2022/01/12 07:46:14;;;;;;;15.13;8.27;;;21.80;46.00;;;;;;4953287;28;20035;-76
2022/01/12 07:48:40;;;;;;;14.00;8.48;;;21.80;46.00;;;;;;4953180;28;20042;-77
2022/01/12 07:51:05;;;;;;;38.50;8.27;;;21.90;46.30;;;;;;4952217;29;20385;-77
2022/01/12 07:53:31;;;;;;;12.30;7.35;;;21.80;46.10;;;;;;4952085;29;20066;-77
2022/01/12 07:55:57;;;;;;;11.68;7.50;;;21.80;46.60;;;;;;4952983;29;20039;-76
2022/01/12 07:58:23;;;;;;;12.50;7.50;;;21.80;46.90;;;;;;4947050;28;20079;-77
2022/01/12 08:00:48;;;;;;;12.32;7.72;;;21.80;46.30;;;;;;4971969;28;20035;-76
2022/01/12 08:03:15;;;;;;;14.15;8.15;;;21.90;46.50;;;;;;4972921;28;20479;-77
2022/01/12 08:05:41;;;;;;;13.70;8.10;;;21.90;46.70;;;;;;4971121;28;20212;-76
2022/01/12 08:08:07;;;;;;;12.43;7.65;;;21.80;46.50;;;;;;4972604;28;20336;-76
2022/01/12 08:10:32;;;;;;;12.85;7.70;;;21.90;46.70;;;;;;4971931;28;20027;-76
2022/01/12 08:12:58;;;;;;;14.27;7.95;;;21.90;46.80;;;;;;4956500;28;20031;-76
2022/01/12 08:15:24;;;;;;;11.23;7.07;;;21.90;47.10;;;;;;4953393;28;20399;-75
2022/01/12 08:17:49;;;;;;;12.90;7.85;;;21.90;47.30;;;;;;4956732;29;20042;-75
2022/01/12 08:20:18;;;;;;;13.93;8.15;;;21.90;47.40;;;;;;4960501;28;20494;-75
2022/01/12 08:22:44;;;;;;;13.70;7.80;;;21.90;47.50;;;;;;4976226;28;20150;-76
2022/01/12 08:25:11;;;;;;;12.52;7.55;;;21.90;47.40;;;;;;4976180;28;20102;-76
2022/01/12 08:27:38;;;;;;;12.38;7.82;;;21.80;47.80;;;;;;4940587;29;20042;-76
2022/01/12 08:30:05;;;;;;;13.35;7.88;;;21.90;47.50;;;;;;4956391;28;20020;-76
2022/01/12 08:32:31;;;;;;;12.68;8.05;;;21.90;47.50;;;;;;4956542;28;20031;-76
2022/01/12 08:34:58;;;;;;;14.20;7.68;;;21.90;47.50;;;;;;4955411;29;20039;-76
2022/01/12 08:37:24;;;;;;;12.65;7.45;;;21.90;47.60;;;;;;4956631;28;20027;-76
2022/01/12 08:39:52;;;;;;;13.48;7.40;;;21.80;48.10;;;;;;4958440;28;20379;-76
2022/01/12 08:42:18;;;;;;;11.90;7.57;;;21.90;47.60;;;;;;4975737;28;20030;-76
2022/01/12 08:44:44;;;;;;;11.98;7.15;;;21.80;47.60;;;;;;4975803;28;20035;-76
2022/01/12 08:47:09;;;;;;;13.25;7.80;;;21.90;48.00;;;;;;4974411;28;20031;-76
2022/01/12 08:49:35;;;;;;;13.90;7.97;;;21.90;48.00;;;;;;4975364;28;20078;-76
2022/01/12 08:52:01;;;;;;;12.57;8.00;;;21.90;47.90;;;;;;4975657;28;20023;-76
2022/01/12 08:54:27;;;;;;;12.70;7.85;;;21.90;47.90;;;;;;4971017;28;20103;-77
2022/01/12 08:56:53;;;;;;;12.90;7.38;;;21.90;48.10;;;;;;4974107;28;20121;-76
2022/01/12 08:59:19;;;;;;;13.68;7.45;;;21.90;48.10;;;;;;4974244;28;20058;-77
2022/01/12 09:01:45;;;;;;;12.52;7.68;;;21.90;48.40;;;;;;4975636;28;20050;-76
2022/01/12 09:04:11;;;;;;;14.35;7.60;;;21.90;48.50;;;;;;4975422;28;20105;-76
2022/01/12 09:06:37;;;;;;;12.48;7.25;;;21.90;48.60;;;;;;4975368;28;20114;-77
2022/01/12 09:09:03;;;;;;;10.13;6.78;;;21.90;48.30;;;;;;4975176;28;20031;-77
2022/01/12 09:11:29;;;;;;;11.50;7.22;;;21.90;48.40;;;;;;4963701;28;20042;-76
2022/01/12 09:13:55;;;;;;;12.65;7.13;;;21.90;48.40;;;;;;4954641;29;20476;-75
2022/01/12 09:16:21;;;;;;;12.13;7.18;;;21.90;48.30;;;;;;4956148;28;20114;-75
2022/01/12 09:18:46;;;;;;;12.35;7.22;;;21.90;48.50;;;;;;4956166;29;20439;-76
2022/01/12 09:21:12;;;;;;;13.07;7.72;;;21.90;48.50;;;;;;4956090;29;20058;-76
2022/01/12 09:23:40;;;;;;;11.98;7.53;;;21.90;48.60;;;;;;4955824;28;20037;-76
2022/01/12 09:26:06;;;;;;;11.98;7.57;;;21.90;48.60;;;;;;4963515;28;20058;-75
2022/01/12 09:28:35;;;;;;;13.15;7.32;;;21.90;48.50;;;;;;4956367;28;20116;-77
2022/01/12 09:31:00;;;;;;;11.45;6.70;;;21.90;48.50;;;;;;4957072;28;20023;-76
2022/01/12 09:33:26;;;;;;;14.45;7.47;;;21.90;48.50;;;;;;4938733;29;20035;-76
2022/01/12 09:35:53;;;;;;;11.88;7.22;;;22.00;48.50;;;;;;4955511;28;20492;-77
2022/01/12 09:38:20;;;;;;;11.93;6.95;;;21.90;48.60;;;;;;4955521;28;20121;-76
2022/01/12 09:40:50;;;;;;;12.02;6.95;;;22.00;49.20;;;;;;4955069;28;20107;-76
2022/01/12 09:43:16;;;;;;;11.68;6.57;;;21.90;48.70;;;;;;4956374;28;20035;-76
2022/01/12 09:45:49;;;;;;;11.82;7.18;;;21.90;48.70;;;;;;4954319;28;20373;-75
2022/01/12 09:48:16;;;;;;;10.75;6.80;;;22.00;48.80;;;;;;4953882;29;20034;-76
2022/01/12 09:50:42;;;;;;;10.68;6.63;;;21.90;48.90;;;;;;4954033;29;20024;-75
2022/01/12 09:53:08;;;;;;;12.30;6.57;;;21.90;49.10;;;;;;4955149;29;20027;-76
2022/01/12 09:55:33;;;;;;;10.98;6.35;;;21.90;49.30;;;;;;4955028;28;20411;-76
2022/01/12 09:57:59;;;;;;;12.65;6.70;;;22.00;49.20;;;;;;4954193;28;20042;-76
2022/01/12 10:00:27;;;;;;;12.10;7.00;;;22.00;49.00;;;;;;4954201;28;20031;-76
2022/01/12 10:02:53;;;;;;;13.85;6.63;;;21.90;49.10;;;;;;4953393;29;20031;-76
2022/01/12 10:05:29;;;;;;;11.85;7.15;;;22.00;49.30;;;;;;4954958;28;20031;-76
2022/01/12 10:08:06;;;;;;;10.05;6.40;;;21.90;49.20;;;;;;4955046;28;20019;-76
2022/01/12 10:10:32;;;;;;;11.73;6.95;;;21.90;49.60;;;;;;4954955;28;20027;-76
2022/01/12 10:12:58;;;;;;;15.05;7.07;;;22.00;49.50;;;;;;4954653;28;20412;-76
2022/01/12 10:15:28;;;;;;;15.82;7.57;;;21.90;49.50;;;;;;4964224;28;20038;-75
2022/01/12 10:18:01;;;;;;;11.20;6.75;;;22.00;49.80;;;;;;4966124;28;20105;-76
2022/01/12 10:20:27;;;;;;;13.13;6.78;;;22.00;49.90;;;;;;4973754;28;20050;-75
2022/01/12 10:23:10;;;;;;;12.07;7.10;;;22.00;49.90;;;;;;4970453;28;20027;-75
2022/01/12 10:25:37;;;;;;;11.25;5.93;;;22.00;50.00;;;;;;4954193;28;20067;-76
2022/01/12 10:28:18;;;;;;;12.98;7.45;;;22.00;50.20;;;;;;4953995;29;20038;-76
2022/01/12 10:31:00;;;;;;;12.32;6.82;;;22.00;50.20;;;;;;4953261;29;20031;-75
2022/01/12 10:33:28;;;;;;;12.20;6.95;;;22.00;50.10;;;;;;4954502;28;20118;-76
2022/01/12 10:36:07;;;;;;;12.88;6.78;;;22.00;50.10;;;;;;4954403;28;20027;-76
2022/01/12 10:38:39;;;;;;;12.27;6.78;;;22.00;50.10;;;;;;4952997;28;20440;-76
2022/01/12 10:41:05;;;;;;;13.50;6.82;;;22.00;50.10;;;;;;4955110;28;20033;-76
2022/01/12 10:43:34;;;;;;;16.75;6.68;;;22.00;50.20;;;;;;4960734;28;20387;-75
2022/01/12 10:46:02;;;;;;;13.80;6.57;;;22.10;50.30;;;;;;4970689;28;20061;-75
2022/01/12 10:48:49;;;;;;;19.25;6.53;;;22.10;50.00;;;;;;4973839;28;20023;-74
2022/01/12 10:51:19;;;;;;;17.98;6.55;;;22.10;50.10;;;;;;4972370;28;20034;-74
2022/01/12 10:53:47;;;;;;;11.93;6.80;;;22.10;50.30;;;;;;4973672;28;20027;-74
2022/01/12 10:56:18;;;;;;;11.38;6.68;;;22.10;50.40;;;;;;4965727;28;20042;-74
2022/01/12 10:58:46;;;;;;;12.88;6.70;;;22.10;50.20;;;;;;4965672;28;20031;-74
2022/01/12 11:01:14;;;;;;;11.23;6.35;;;22.10;50.30;;;;;;4972319;28;20039;-74
2022/01/12 11:03:41;;;;;;;16.05;6.90;;;22.10;50.50;;;;;;4955915;28;20052;-74
2022/01/12 11:06:08;;;;;;;11.13;6.30;;;22.10;50.50;;;;;;4972999;28;20437;-74
2022/01/12 11:08:35;;;;;;;19.27;7.90;;;22.10;50.40;;;;;;4971447;28;20022;-76
2022/01/12 11:11:02;;;;;;;16.48;7.55;;;22.10;52.50;;;;;;4971619;28;20026;-75
2022/01/12 11:13:28;;;;;;;16.13;8.10;;;22.10;51.10;;;;;;4973321;28;20102;-75
2022/01/12 11:15:56;;;;;;;25.27;7.82;;;22.10;51.00;;;;;;4973856;28;20087;-75
2022/01/12 11:18:28;;;;;;;13.43;7.45;;;22.20;51.80;;;;;;4956541;28;20053;-75
2022/01/12 11:21:00;;;;;;;18.42;8.43;;;22.20;53.00;;;;;;4955031;28;20039;-75
2022/01/12 11:23:36;;;;;;;18.45;9.70;;;22.30;53.40;;;;;;4963108;28;20057;-75
2022/01/12 11:26:17;;;;;;;20.30;9.85;;;22.40;58.00;;;;;;4971602;28;20035;-74
2022/01/12 11:28:44;;;;;;;16.88;8.07;;;22.40;60.50;;;;;;4972170;28;20055;-77
2022/01/12 11:31:12;;;;;;;16.50;8.98;;;22.50;58.70;;;;;;4970826;28;20026;-74
2022/01/12 11:33:40;;;;;;;19.25;9.70;;;22.30;56.50;;;;;;4971181;28;20566;-75
2022/01/12 11:36:14;;;;;;;18.13;8.95;;;22.20;54.70;;;;;;4972748;28;20031;-74
2022/01/12 11:38:42;;;;;;;15.07;8.90;;;22.10;54.20;;;;;;4972976;28;20031;-74
2022/01/12 11:41:11;;;;;;;25.02;12.93;;;22.10;51.20;;;;;;4962776;28;20067;-74
2022/01/12 11:43:47;;;;;;;22.50;15.82;;;22.00;49.70;;;;;;4952871;28;20074;-74
2022/01/12 11:46:20;;;;;;;23.67;16.90;;;20.40;39.90;;;;;;4958170;28;20045;-75
2022/01/12 11:48:53;;;;;;;26.20;15.38;;;20.00;40.70;;;;;;4954188;28;20027;-73
2022/01/12 11:51:40;;;;;;;22.63;12.10;;;20.30;45.00;;;;;;4951676;29;20454;-73
2022/01/12 11:54:15;;;;;;;17.52;10.85;;;20.60;45.00;;;;;;4939784;28;20108;-74
2022/01/12 11:57:02;;;;;;;17.42;9.98;;;21.00;43.50;;;;;;4963175;28;20566;-74
2022/01/12 11:59:30;;;;;;;16.23;9.30;;;21.20;42.60;;;;;;4970618;28;20058;-75
2022/01/12 12:02:11;;;;;;;14.85;8.82;;;21.40;42.60;;;;;;4972711;28;20525;-75
2022/01/12 12:04:37;;;;;;;19.63;9.63;;;21.50;42.80;;;;;;4966433;28;20031;-76
2022/01/12 12:07:07;;;;;;;16.85;8.23;;;21.60;43.50;;;;;;4959743;28;20039;-76
2022/01/12 12:09:54;;;;;;;17.77;9.43;;;21.60;44.80;;;;;;4952600;28;20027;-75
2022/01/12 12:12:28;;;;;;;17.30;10.10;;;21.50;44.00;;;;;;4970288;28;20023;-76
2022/01/12 12:14:58;;;;;;;20.02;9.73;;;21.50;44.00;;;;;;4971630;28;20046;-75
2022/01/12 12:17:27;;;;;;;23.35;14.05;;;21.50;43.80;;;;;;4971526;28;20125;-75
2022/01/12 12:19:54;;;;;;;22.48;10.80;;;21.50;43.90;;;;;;4971285;28;20031;-76
2022/01/12 12:22:25;;;;;;;21.77;13.57;;;21.50;44.40;;;;;;4972289;28;20038;-73
2022/01/12 12:24:57;;;;;;;23.60;13.43;;;21.50;45.00;;;;;;4972729;28;20034;-75
2022/01/12 12:27:25;;;;;;;27.50;16.52;;;21.40;42.30;;;;;;4971115;28;20015;-76
2022/01/12 12:29:51;;;;;;;25.33;14.95;;;21.40;41.50;;;;;;4960927;28;20023;-75
2022/01/12 12:32:19;;;;;;;29.42;16.42;;;21.40;41.00;;;;;;4952837;28;20106;-76
2022/01/12 12:34:46;;;;;;;23.85;12.85;;;21.20;38.90;;;;;;4953028;28;20027;-76
2022/01/12 12:37:15;;;;;;;22.83;12.07;;;21.20;40.10;;;;;;4959450;28;20535;-75
2022/01/12 12:39:44;;;;;;;24.75;11.57;;;21.30;40.90;;;;;;4950170;29;20058;-76
2022/01/12 12:42:20;;;;;;;26.45;10.68;;;21.50;42.50;;;;;;4950909;29;20031;-75
2022/01/12 12:44:48;;;;;;;23.45;9.55;;;21.60;42.60;;;;;;4953179;28;20023;-75
2022/01/12 12:47:19;;;;;;;18.00;9.23;;;21.60;42.80;;;;;;4951632;29;20047;-76
2022/01/12 12:49:56;;;;;;;20.00;9.30;;;21.60;42.10;;;;;;4952324;28;20070;-76
2022/01/12 12:52:37;;;;;;;18.67;8.88;;;21.70;42.30;;;;;;4951939;29;20360;-76
2022/01/12 12:55:12;;;;;;;20.27;8.43;;;21.80;42.90;;;;;;4952786;28;20027;-76
2022/01/12 12:57:47;;;;;;;15.43;7.97;;;21.80;43.50;;;;;;4952943;28;20035;-75
2022/01/12 13:00:16;;;;;;;18.45;8.50;;;21.90;43.90;;;;;;4954661;28;20027;-77
2022/01/12 13:02:47;;;;;;;20.95;7.97;;;21.80;44.70;;;;;;4956964;28;20034;-76
2022/01/12 13:05:19;;;;;;;17.27;8.27;;;21.90;45.80;;;;;;4956240;28;20028;-76
2022/01/12 13:07:47;;;;;;;18.65;8.07;;;22.00;46.60;;;;;;4956515;28;20062;-76
2022/01/12 13:10:15;;;;;;;20.83;10.00;;;22.00;46.50;;;;;;4955641;28;20396;-77
2022/01/12 13:13:01;;;;;;;22.48;10.25;;;22.10;47.20;;;;;;4956242;28;20031;-77
2022/01/12 13:15:39;;;;;;;20.30;9.02;;;22.10;47.30;;;;;;4956325;28;20487;-77
2022/01/12 13:18:07;;;;;;;23.60;9.20;;;22.10;47.00;;;;;;4956705;28;20030;-77
2022/01/12 13:23:24;;;;;;;17.02;8.70;;;22.10;47.80;;;;;;4956724;29;20042;-77
2022/01/12 13:25:53;;;;;;;17.85;8.80;;;22.20;48.20;;;;;;4955795;28;20078;-77
2022/01/12 13:28:20;;;;;;;18.40;8.60;;;22.10;48.80;;;;;;4955960;28;20434;-75
2022/01/12 13:30:52;;;;;;;20.05;9.30;;;22.20;48.70;;;;;;4955453;28;20031;-76
2022/01/12 13:33:30;;;;;;;23.35;8.57;;;22.20;48.30;;;;;;4955910;28;20427;-74
2022/01/12 13:35:58;;;;;;;16.75;8.15;;;22.20;48.60;;;;;;4955572;28;20050;-75
2022/01/12 13:38:32;;;;;;;17.52;8.73;;;22.10;47.70;;;;;;4954589;29;20059;-75
2022/01/12 13:41:10;;;;;;;18.20;10.52;;;22.10;47.30;;;;;;4954219;29;20027;-76
2022/01/12 13:43:38;;;;;;;22.67;11.90;;;22.10;47.60;;;;;;4957714;28;20407;-77
2022/01/12 13:46:11;;;;;;;18.98;12.07;;;22.00;47.20;;;;;;4995260;23;20051;-74
2022/01/12 13:48:40;;;;;;;22.30;13.63;;;22.00;47.30;;;;;;4947137;29;20023;-74
2022/01/12 13:51:06;;;;;;;23.05;12.43;;;22.10;47.20;;;;;;4933813;29;20031;-74
2022/01/12 13:53:34;;;;;;;19.90;11.60;;;22.00;47.70;;;;;;4935031;29;20036;-74
2022/01/12 13:56:00;;;;;;;29.48;11.88;;;22.10;47.70;;;;;;4934072;29;20036;-73
2022/01/12 13:58:28;;;;;;;23.35;11.45;;;22.10;48.00;;;;;;4935446;29;20492;-75
2022/01/12 14:01:03;;;;;;;18.00;10.82;;;22.10;48.00;;;;;;4950379;29;20122;-75